Aérodrome :
LOGIN :

S'inscrire | Disclaimer

   EN    FR    IT 

 










Légende :    VFR   VFR Marginal   IFR   IFR Intensif   IFR Très Intensif
Visi : 
Plafond : 
>= 8 km
>= 3000ft
5 à 8 km
1000 à 3000 ft
1500m à 5 km
500 à 1000 ft
800 à 1500m
200 à 500 ft
< 800m
< 200 ft
Symboles :   Orages  Brouillard  Fortes neiges  Fortes précipitations  Vent > 20 kt
SIGMETs :   Divers  Orages  Givrage  Turbulence  Onde Orograph.  Cendres Volcan.






- Altitude de l'aérodrome : 288 ft
- Code IATA : BZZ


EGVN - RAF Brize Norton

DERNIER METAR :
  • 012250Z 20004KT 9999 FEW027 13/10 Q1018 NOSIG RMK BLU BLU

METARs EXPIRÉS :
  • 011620Z 21009KT CAVOK 18/08 Q1017 NOSIG RMK BLU BLU
  • 012150Z 19003KT CAVOK 13/09 Q1018 NOSIG RMK BLU BLU
  • 012120Z 21004KT CAVOK 14/09 Q1018 NOSIG RMK BLU BLU
  • 012050Z 21004KT CAVOK 15/09 Q1018 NOSIG RMK BLU BLU
  • 012020Z 22005KT CAVOK 15/09 Q1018 NOSIG RMK BLU BLU

TAF TAF EGVN
Valide du 01 à 21h jusqu'au 02 à 21h UTC


011921Z 0121/0221 22010KT 9999 SCT040
TEMPO 0203/0215 BKN020
PROB30
TEMPO 0203/0208 SCT012
PROB40
TEMPO 0208/0215 4000 SHRA BKN010
PROB30
TEMPO 0208/0215 20015G25KT



MET'MAP, la Météo Aéronautique d'un coup d'oeil ! - Copyright ORBIFLY Décembre 2007 - Disclaimer

ORBIFLY MET'MAP TEAM :

Programmation & Développement : Alexandra Zaïnal
Sur une idée originale de : Baudouin d'Aumeries
Soutien technique & logistique : Manuel Goepfert
Assistance : Marc-Olivier Méhu




SOURCES & CREDITS :

   NOAA